createdAt,value
2023-01-19T00:01:09.063Z,1.50
2023-01-19T00:03:37.213Z,1.40
2023-01-19T00:06:09.029Z,1.50
2023-01-19T00:08:37.251Z,1.50
2023-01-19T00:11:05.442Z,1.50
2023-01-19T00:13:33.707Z,1.50
2023-01-19T00:16:01.772Z,1.50
2023-01-19T00:18:29.743Z,2.00
2023-01-19T00:20:57.691Z,2.10
2023-01-19T00:23:25.684Z,2.80
2023-01-19T00:25:53.755Z,2.60
2023-01-19T00:28:21.727Z,2.10
2023-01-19T00:30:50.427Z,1.80
2023-01-19T00:33:18.379Z,2.40
2023-01-19T00:35:51.679Z,2.40
2023-01-19T00:38:19.951Z,2.70
2023-01-19T00:40:48.640Z,2.50
2023-01-19T00:43:16.919Z,2.40
2023-01-19T00:45:45.728Z,2.40
2023-01-19T00:48:13.954Z,2.50
2023-01-19T00:50:41.869Z,2.30
2023-01-19T00:53:09.926Z,2.40
2023-01-19T00:55:37.991Z,2.30
2023-01-19T00:58:07.406Z,2.40
2023-01-19T01:00:35.599Z,2.40
2023-01-19T01:03:04.386Z,2.50
2023-01-19T01:05:32.497Z,3.10
2023-01-19T01:08:00.414Z,2.80
2023-01-19T01:10:29.634Z,3.10
2023-01-19T01:15:45.269Z,3.40
2023-01-19T01:18:13.430Z,3.60
2023-01-19T01:20:41.543Z,3.30
2023-01-19T01:23:09.652Z,3.60
2023-01-19T01:25:38.633Z,3.60
2023-01-19T01:28:08.832Z,3.30
2023-01-19T01:30:40.079Z,6.10
2023-01-19T01:33:08.906Z,6.60
2023-01-19T01:35:37.421Z,7.10
2023-01-19T01:38:05.528Z,7.00
2023-01-19T01:40:33.616Z,4.90
2023-01-19T01:43:03.177Z,5.00
2023-01-19T01:45:38.523Z,5.00
2023-01-19T01:48:27.713Z,4.00
2023-01-19T01:51:25.184Z,3.60
2023-01-19T01:54:03.589Z,2.90
2023-01-19T01:56:35.969Z,3.10
2023-01-19T01:59:08.505Z,2.40
2023-01-19T02:01:55.597Z,2.70
2023-01-19T02:04:24.093Z,2.90
2023-01-19T02:07:10.642Z,3.00
2023-01-19T02:09:57.356Z,3.20
2023-01-19T02:12:44.161Z,3.30
2023-01-19T02:15:21.556Z,3.70
2023-01-19T02:17:50.339Z,6.30
2023-01-19T02:20:21.486Z,5.70
2023-01-19T02:22:51.811Z,4.20
2023-01-19T02:25:20.629Z,3.00
2023-01-19T02:27:51.752Z,3.50
2023-01-19T02:30:19.975Z,3.40
2023-01-19T02:32:48.091Z,3.50
2023-01-19T02:35:16.366Z,3.30
2023-01-19T02:37:45.122Z,3.40
2023-01-19T02:40:19.736Z,3.00
2023-01-19T02:42:52.565Z,2.80
2023-01-19T02:45:23.056Z,3.10
2023-01-19T02:47:52.735Z,2.80
2023-01-19T02:50:36.362Z,3.20
2023-01-19T02:53:26.100Z,2.90
2023-01-19T02:56:02.429Z,3.10
2023-01-19T02:59:04.898Z,3.40
2023-01-19T03:01:58.906Z,3.00
2023-01-19T03:04:42.073Z,2.70
2023-01-19T03:07:31.682Z,3.10
2023-01-19T03:10:07.932Z,2.80
2023-01-19T03:12:44.691Z,2.90
2023-01-19T03:15:32.968Z,2.80
2023-01-19T03:18:02.435Z,2.90
2023-01-19T03:23:05.352Z,2.50
2023-01-19T03:25:37.196Z,2.70
2023-01-19T03:28:05.986Z,2.50
2023-01-19T03:30:39.573Z,2.70
2023-01-19T03:33:14.880Z,2.60
2023-01-19T03:35:54.033Z,2.60
2023-01-19T03:41:00.446Z,2.50
2023-01-19T03:43:30.437Z,2.70
2023-01-19T03:45:59.448Z,3.10
2023-01-19T03:48:27.834Z,2.80
2023-01-19T03:50:56.069Z,2.80
2023-01-19T03:53:24.079Z,2.80
2023-01-19T03:55:54.305Z,2.50
2023-01-19T03:58:22.478Z,2.40
2023-01-19T04:00:50.687Z,2.50
2023-01-19T04:03:18.950Z,2.20
2023-01-19T04:05:46.979Z,2.50
2023-01-19T04:08:15.086Z,2.30
2023-01-19T04:10:43.152Z,2.50
2023-01-19T04:13:11.113Z,2.10
2023-01-19T04:15:39.141Z,2.40
2023-01-19T04:18:07.288Z,3.00
2023-01-19T04:20:35.330Z,2.20
2023-01-19T04:23:03.751Z,2.50
2023-01-19T04:25:32.190Z,2.50
2023-01-19T04:28:00.177Z,2.70
2023-01-19T04:30:28.576Z,2.80
2023-01-19T04:32:59.281Z,2.80
2023-01-19T04:35:27.524Z,2.70
2023-01-19T04:37:55.651Z,3.00
2023-01-19T04:40:23.594Z,2.70
2023-01-19T04:42:51.457Z,2.60
2023-01-19T04:45:19.574Z,2.90
2023-01-19T04:47:47.496Z,2.90
2023-01-19T04:50:15.780Z,2.30
2023-01-19T04:52:43.745Z,2.90
2023-01-19T04:55:11.697Z,3.00
2023-01-19T04:57:39.601Z,2.60
2023-01-19T05:00:08.854Z,2.90
2023-01-19T05:05:05.232Z,3.10
2023-01-19T05:07:33.213Z,2.90
2023-01-19T05:10:01.270Z,2.90
2023-01-19T05:12:29.180Z,2.90
2023-01-19T05:14:57.215Z,3.00
2023-01-19T05:17:25.795Z,3.30
2023-01-19T05:19:53.867Z,3.10
2023-01-19T05:22:21.789Z,2.60
2023-01-19T05:24:49.806Z,4.00
2023-01-19T05:27:17.880Z,3.10
2023-01-19T05:29:45.950Z,3.30
2023-01-19T05:32:13.923Z,2.90
2023-01-19T05:34:42.197Z,3.00
2023-01-19T05:37:10.165Z,2.70
2023-01-19T05:39:39.158Z,2.80
2023-01-19T05:42:07.489Z,1.90
2023-01-19T05:44:35.918Z,2.40
2023-01-19T05:47:05.276Z,2.10
2023-01-19T05:49:33.293Z,2.80
2023-01-19T05:52:01.331Z,2.20
2023-01-19T05:54:29.567Z,4.30
2023-01-19T05:56:57.788Z,3.00
2023-01-19T05:59:25.967Z,3.60
2023-01-19T06:01:54.247Z,3.20
2023-01-19T06:04:22.345Z,3.20
2023-01-19T06:06:50.535Z,3.80
2023-01-19T06:09:19.001Z,3.50
2023-01-19T06:11:47.505Z,4.00
2023-01-19T06:14:15.520Z,4.00
2023-01-19T06:16:43.588Z,4.00
2023-01-19T06:19:11.629Z,3.60
2023-01-19T06:21:39.925Z,3.50
2023-01-19T06:24:08.016Z,3.50
2023-01-19T06:26:36.309Z,3.30
2023-01-19T06:29:04.287Z,2.70
2023-01-19T06:31:32.146Z,3.40
2023-01-19T06:34:00.101Z,3.80
2023-01-19T06:36:28.125Z,4.00
2023-01-19T06:38:56.279Z,3.50
2023-01-19T06:41:24.303Z,5.10
2023-01-19T06:43:52.454Z,4.20
2023-01-19T06:46:20.592Z,3.90
2023-01-19T06:48:48.569Z,3.70
2023-01-19T06:51:16.793Z,3.50
2023-01-19T06:53:44.664Z,3.50
2023-01-19T06:56:13.039Z,3.30
2023-01-19T06:58:43.060Z,3.20
2023-01-19T07:01:11.041Z,2.90
2023-01-19T07:03:40.947Z,3.60
2023-01-19T07:08:38.316Z,3.80
2023-01-19T07:11:25.098Z,4.20
2023-01-19T07:13:57.531Z,4.80
2023-01-19T07:16:25.706Z,4.50
2023-01-19T07:18:53.756Z,3.90
2023-01-19T07:21:22.034Z,3.50
2023-01-19T07:23:52.812Z,4.30
2023-01-19T07:26:21.827Z,3.70
2023-01-19T07:28:50.753Z,3.20
2023-01-19T07:31:19.497Z,4.20
2023-01-19T07:33:47.595Z,4.30
2023-01-19T07:36:15.691Z,4.20
2023-01-19T07:38:43.761Z,3.60
2023-01-19T07:41:11.914Z,3.60
2023-01-19T07:43:40.669Z,3.40
2023-01-19T07:46:08.857Z,4.40
2023-01-19T07:48:36.917Z,5.10
2023-01-19T07:51:10.983Z,2.80
2023-01-19T07:53:42.059Z,2.60
2023-01-19T07:56:11.308Z,2.80
2023-01-19T07:58:40.138Z,2.50
2023-01-19T08:01:10.604Z,2.70
2023-01-19T08:03:39.022Z,3.00
2023-01-19T08:06:07.613Z,2.60
2023-01-19T08:08:35.668Z,2.40
2023-01-19T08:11:03.738Z,2.40
2023-01-19T08:13:32.012Z,1.80
2023-01-19T08:16:00.373Z,2.10
2023-01-19T08:18:28.396Z,2.20
2023-01-19T08:20:59.491Z,1.90
2023-01-19T08:23:30.826Z,2.10
2023-01-19T08:25:58.809Z,2.20
2023-01-19T08:28:27.068Z,2.40
2023-01-19T08:30:55.456Z,2.20
2023-01-19T08:33:25.417Z,2.00
2023-01-19T08:35:54.547Z,2.10
2023-01-19T08:38:22.904Z,1.80
2023-01-19T08:40:51.017Z,2.00
2023-01-19T08:43:19.197Z,2.20
2023-01-19T08:45:51.661Z,2.50
2023-01-19T08:48:24.851Z,2.90
2023-01-19T08:50:53.555Z,3.00
2023-01-19T08:53:23.707Z,3.30
2023-01-19T08:56:01.336Z,2.50
2023-01-19T08:58:29.739Z,2.70
2023-01-19T09:01:00.670Z,2.30
2023-01-19T09:03:29.785Z,2.30
2023-01-19T09:05:57.945Z,2.50
2023-01-19T09:08:25.914Z,3.00
2023-01-19T09:10:53.888Z,2.10
2023-01-19T09:13:21.828Z,2.20
2023-01-19T09:15:49.903Z,2.50
2023-01-19T09:18:21.492Z,2.70
2023-01-19T09:20:51.090Z,3.10
2023-01-19T09:23:20.971Z,2.60
2023-01-19T09:25:49.360Z,2.30
2023-01-19T09:28:17.882Z,3.00
2023-01-19T09:30:45.995Z,4.90
2023-01-19T09:33:16.309Z,4.70
2023-01-19T09:35:46.384Z,4.90
2023-01-19T09:38:16.426Z,5.10
2023-01-19T09:40:49.577Z,4.70
2023-01-19T09:43:27.912Z,4.40
2023-01-19T09:46:01.303Z,3.80
2023-01-19T09:48:45.811Z,3.50
2023-01-19T09:51:20.890Z,2.60
2023-01-19T09:54:15.774Z,3.20
2023-01-19T09:56:51.331Z,3.50
2023-01-19T09:59:23.110Z,3.10
2023-01-19T10:02:00.896Z,3.30
2023-01-19T10:04:39.926Z,3.20
2023-01-19T10:07:53.278Z,3.10
2023-01-19T10:10:29.762Z,3.00
2023-01-19T10:13:29.188Z,3.50
2023-01-19T10:16:41.444Z,3.10
2023-01-19T10:19:23.732Z,3.30
2023-01-19T10:21:55.302Z,4.00
2023-01-19T10:24:38.589Z,4.00
2023-01-19T10:27:18.026Z,4.10
2023-01-19T10:29:46.865Z,4.00
2023-01-19T10:32:22.094Z,3.80
2023-01-19T10:34:51.615Z,4.00
2023-01-19T10:37:46.491Z,3.60
2023-01-19T10:40:22.663Z,3.40
2023-01-19T10:42:50.979Z,3.40
2023-01-19T10:45:22.850Z,3.50
2023-01-19T10:47:52.787Z,3.10
2023-01-19T10:50:29.044Z,3.40
2023-01-19T10:53:00.451Z,3.30
2023-01-19T10:55:39.671Z,3.70
2023-01-19T10:58:29.356Z,3.50
2023-01-19T11:01:16.648Z,3.60
2023-01-19T11:03:45.779Z,3.20
2023-01-19T11:06:14.895Z,3.80
2023-01-19T11:11:15.116Z,3.50
2023-01-19T11:13:44.097Z,3.80
2023-01-19T11:18:52.553Z,2.10
2023-01-19T11:21:25.972Z,2.50
2023-01-19T11:23:57.886Z,2.30
2023-01-19T11:26:44.903Z,2.60
2023-01-19T11:29:22.538Z,2.60
2023-01-19T11:31:51.815Z,1.90
2023-01-19T11:34:40.537Z,2.80
2023-01-19T11:37:20.915Z,3.00
2023-01-19T11:39:51.363Z,2.30
2023-01-19T11:42:20.690Z,2.50
2023-01-19T11:45:24.283Z,2.10
2023-01-19T11:47:52.831Z,1.70
2023-01-19T11:50:33.158Z,2.10
2023-01-19T11:53:23.370Z,2.10
2023-01-19T11:55:56.997Z,1.80
2023-01-19T11:58:26.803Z,2.00
2023-01-19T12:01:00.719Z,1.50
2023-01-19T12:03:39.081Z,1.40
2023-01-19T12:06:12.429Z,1.10
2023-01-19T12:08:45.636Z,1.20
2023-01-19T12:11:20.239Z,1.10
2023-01-19T12:13:49.454Z,1.10
2023-01-19T12:16:22.940Z,1.10
2023-01-19T12:19:04.211Z,1.30
2023-01-19T12:21:32.495Z,1.00
2023-01-19T12:24:03.577Z,1.00
2023-01-19T12:26:44.952Z,0.70
2023-01-19T12:29:18.724Z,1.00
2023-01-19T12:32:18.450Z,1.10
2023-01-19T12:34:55.945Z,0.80
2023-01-19T12:37:40.363Z,0.60
2023-01-19T12:40:23.915Z,0.70
2023-01-19T12:43:03.260Z,0.90
2023-01-19T12:45:34.905Z,0.90
2023-01-19T12:48:04.340Z,1.10
2023-01-19T12:50:38.076Z,0.90
2023-01-19T12:53:19.275Z,0.90
2023-01-19T12:55:59.899Z,1.00
2023-01-19T12:58:28.173Z,1.30
2023-01-19T13:01:16.131Z,0.80
2023-01-19T13:04:03.578Z,0.80
2023-01-19T13:06:47.156Z,0.60
2023-01-19T13:09:32.721Z,1.00
2023-01-19T13:12:24.210Z,0.90
2023-01-19T13:15:28.845Z,0.90
2023-01-19T13:17:57.458Z,0.80
2023-01-19T13:20:27.658Z,1.10
2023-01-19T13:23:20.655Z,1.30
2023-01-19T13:25:58.518Z,1.30
2023-01-19T13:28:41.081Z,1.00
2023-01-19T13:31:12.166Z,1.10
2023-01-19T13:33:42.979Z,1.00
2023-01-19T13:36:38.755Z,1.30
2023-01-19T13:39:33.621Z,1.20
2023-01-19T13:42:24.009Z,0.90
2023-01-19T13:44:54.900Z,1.20
2023-01-19T13:47:52.921Z,1.20
2023-01-19T13:50:27.125Z,1.10
2023-01-19T13:52:56.861Z,1.10
2023-01-19T13:55:30.120Z,1.40
2023-01-19T13:57:58.390Z,1.00
2023-01-19T14:00:28.877Z,1.20
2023-01-19T14:02:59.250Z,1.80
2023-01-19T14:05:34.996Z,1.00
2023-01-19T14:08:11.391Z,1.10
2023-01-19T14:10:47.177Z,1.80
2023-01-19T14:13:19.475Z,1.70
2023-01-19T14:15:50.274Z,1.80
2023-01-19T14:18:18.699Z,1.60
2023-01-19T14:21:07.770Z,2.20
2023-01-19T14:23:35.683Z,2.00
2023-01-19T14:26:04.486Z,1.80
2023-01-19T14:28:35.731Z,1.50
2023-01-19T14:31:19.036Z,2.00
2023-01-19T14:33:49.994Z,1.80
2023-01-19T14:36:26.681Z,1.70
2023-01-19T14:38:58.507Z,1.60
2023-01-19T14:41:49.106Z,1.70
2023-01-19T14:44:21.609Z,2.20
2023-01-19T14:46:50.285Z,1.80
2023-01-19T14:49:29.266Z,1.60
2023-01-19T14:51:57.575Z,1.90
2023-01-19T14:54:33.736Z,1.80
2023-01-19T14:57:02.044Z,2.00
2023-01-19T14:59:30.318Z,2.00
2023-01-19T15:01:59.954Z,2.70
2023-01-19T15:04:28.206Z,2.10
2023-01-19T15:06:56.541Z,1.90
2023-01-19T15:09:25.381Z,1.80
2023-01-19T15:11:53.850Z,2.20
2023-01-19T15:14:22.129Z,1.60
2023-01-19T15:16:50.613Z,1.70
2023-01-19T15:19:18.795Z,1.80
2023-01-19T15:21:47.036Z,1.50
2023-01-19T15:24:17.744Z,1.60
2023-01-19T15:26:46.274Z,1.80
2023-01-19T15:29:29.786Z,1.70
2023-01-19T15:31:59.011Z,1.80
2023-01-19T15:34:26.990Z,1.40
2023-01-19T15:36:54.905Z,1.50
2023-01-19T15:39:23.657Z,1.50
2023-01-19T15:41:52.934Z,1.30
2023-01-19T15:44:21.217Z,1.50
2023-01-19T15:46:49.885Z,1.80
2023-01-19T15:49:17.869Z,1.50
2023-01-19T15:51:45.838Z,1.80
2023-01-19T15:54:17.080Z,1.40
2023-01-19T15:56:45.461Z,1.50
2023-01-19T15:59:13.738Z,1.30
2023-01-19T16:01:41.885Z,1.60
2023-01-19T16:04:11.853Z,1.90
2023-01-19T16:06:40.109Z,2.20
2023-01-19T16:09:08.132Z,2.10
2023-01-19T16:11:37.990Z,2.00
2023-01-19T16:14:06.060Z,2.50
2023-01-19T16:16:34.203Z,2.30
2023-01-19T16:19:02.436Z,2.30
2023-01-19T16:21:30.444Z,1.90
2023-01-19T16:23:58.313Z,2.10
2023-01-19T16:26:34.893Z,2.40
2023-01-19T16:29:08.816Z,2.20
2023-01-19T16:31:38.129Z,1.80
2023-01-19T16:36:36.545Z,2.10
2023-01-19T16:39:07.469Z,2.00
2023-01-19T16:41:36.679Z,2.20
2023-01-19T16:46:36.059Z,2.20
2023-01-19T16:49:06.889Z,2.00
2023-01-19T16:51:34.894Z,2.00
2023-01-19T16:54:03.473Z,2.10
2023-01-19T16:56:31.449Z,2.20
2023-01-19T16:59:00.075Z,2.00
2023-01-19T17:01:29.365Z,2.20
2023-01-19T17:06:26.322Z,2.10
2023-01-19T17:08:54.569Z,2.10
2023-01-19T17:11:25.918Z,1.80
2023-01-19T17:13:56.818Z,2.10
2023-01-19T17:16:25.246Z,1.90
2023-01-19T17:18:54.435Z,2.00
2023-01-19T17:21:22.504Z,1.90
2023-01-19T17:23:53.620Z,2.10
2023-01-19T17:26:25.377Z,1.70
2023-01-19T17:28:58.414Z,1.80
2023-01-19T17:31:26.737Z,1.80
2023-01-19T17:33:54.949Z,2.20
2023-01-19T17:36:25.492Z,2.20
2023-01-19T17:38:56.317Z,2.00
2023-01-19T17:41:25.891Z,1.80
2023-01-19T17:43:54.912Z,1.90
2023-01-19T17:46:25.291Z,2.00
2023-01-19T17:49:01.483Z,2.60
2023-01-19T17:51:30.797Z,2.20
2023-01-19T17:53:59.595Z,2.10
2023-01-19T17:56:30.362Z,2.10
2023-01-19T17:58:59.458Z,2.20
2023-01-19T18:01:30.204Z,2.40
2023-01-19T18:03:58.854Z,2.20
2023-01-19T18:06:26.824Z,2.10
2023-01-19T18:08:55.107Z,1.90
2023-01-19T18:11:23.061Z,2.40
2023-01-19T18:13:51.884Z,1.90
2023-01-19T18:16:28.604Z,1.80
2023-01-19T18:18:57.193Z,1.70
2023-01-19T18:21:28.213Z,1.60
2023-01-19T18:24:04.417Z,1.40
2023-01-19T18:26:35.763Z,1.60
2023-01-19T18:29:04.035Z,2.00
2023-01-19T18:31:32.165Z,1.80
2023-01-19T18:34:00.231Z,1.70
2023-01-19T18:36:28.558Z,1.30
2023-01-19T18:38:56.545Z,1.50
2023-01-19T18:41:25.344Z,1.70
2023-01-19T18:43:58.301Z,1.60
2023-01-19T18:46:27.558Z,1.60
2023-01-19T18:48:55.861Z,1.70
2023-01-19T18:51:23.988Z,1.50
2023-01-19T18:53:52.336Z,1.60
2023-01-19T18:56:20.609Z,1.80
2023-01-19T18:58:48.585Z,1.50
2023-01-19T19:01:24.075Z,1.70
2023-01-19T19:03:53.851Z,1.90
2023-01-19T19:06:23.415Z,1.80
2023-01-19T19:08:52.606Z,1.60
2023-01-19T19:11:22.889Z,2.00
2023-01-19T19:14:00.252Z,1.60
2023-01-19T19:16:30.298Z,1.70
2023-01-19T19:18:59.136Z,1.50
2023-01-19T19:21:27.569Z,1.30
2023-01-19T19:23:57.549Z,1.40
2023-01-19T19:26:28.275Z,1.40
2023-01-19T19:28:56.896Z,1.20
2023-01-19T19:31:26.952Z,1.20
2023-01-19T19:33:56.574Z,1.30
2023-01-19T19:36:26.627Z,1.50
2023-01-19T19:38:54.702Z,1.50
2023-01-19T19:41:27.216Z,1.50
2023-01-19T19:43:55.947Z,1.60
2023-01-19T19:46:25.483Z,3.30
2023-01-19T19:48:54.150Z,1.80
2023-01-19T19:51:26.895Z,1.60
2023-01-19T19:53:57.411Z,1.50
2023-01-19T19:56:28.138Z,1.70
2023-01-19T19:58:57.876Z,1.50
2023-01-19T20:01:32.551Z,1.60
2023-01-19T20:04:07.669Z,1.70
2023-01-19T20:06:39.056Z,1.60
2023-01-19T20:09:10.671Z,1.60
2023-01-19T20:11:39.631Z,1.70
2023-01-19T20:14:09.994Z,1.60
2023-01-19T20:16:38.585Z,1.70
2023-01-19T20:19:06.736Z,1.50
2023-01-19T20:21:37.383Z,1.50
2023-01-19T20:24:15.256Z,1.50
2023-01-19T20:26:46.327Z,1.60
2023-01-19T20:29:15.323Z,1.50
2023-01-19T20:31:46.832Z,1.40
2023-01-19T20:34:18.021Z,1.60
2023-01-19T20:36:49.788Z,1.80
2023-01-19T20:39:18.939Z,1.80
2023-01-19T20:41:50.193Z,1.80
2023-01-19T20:44:25.262Z,1.80
2023-01-19T20:46:54.150Z,1.70
2023-01-19T20:49:23.260Z,1.70
2023-01-19T20:51:52.227Z,1.80
2023-01-19T20:54:23.086Z,2.20
2023-01-19T20:56:51.284Z,1.80
2023-01-19T20:59:19.450Z,1.90
2023-01-19T21:01:48.612Z,1.70
2023-01-19T21:04:17.587Z,1.90
2023-01-19T21:06:45.760Z,2.10
2023-01-19T21:09:13.971Z,2.10
2023-01-19T21:11:41.971Z,1.90
2023-01-19T21:14:11.032Z,2.30
2023-01-19T21:16:39.026Z,2.10
2023-01-19T21:19:07.663Z,2.30
2023-01-19T21:21:35.588Z,2.00
2023-01-19T21:24:04.753Z,2.20
2023-01-19T21:26:33.641Z,2.20
2023-01-19T21:29:03.653Z,1.90
2023-01-19T21:31:31.750Z,2.10
2023-01-19T21:34:00.013Z,2.00
2023-01-19T21:36:28.299Z,2.20
2023-01-19T21:39:00.666Z,1.90
2023-01-19T21:41:34.874Z,2.00
2023-01-19T21:44:03.148Z,2.20
2023-01-19T21:46:33.081Z,2.00
2023-01-19T21:49:04.267Z,1.90
2023-01-19T21:51:35.039Z,2.10
2023-01-19T21:54:05.586Z,2.10
2023-01-19T21:56:34.708Z,2.00
2023-01-19T21:59:03.663Z,2.20
2023-01-19T22:01:33.267Z,2.30
2023-01-19T22:04:01.543Z,2.00
2023-01-19T22:06:29.971Z,2.20
2023-01-19T22:08:58.518Z,2.20
2023-01-19T22:11:27.522Z,2.40
2023-01-19T22:13:56.299Z,2.40
2023-01-19T22:16:24.397Z,2.20
2023-01-19T22:18:56.467Z,2.30
2023-01-19T22:21:26.811Z,2.50
2023-01-19T22:23:59.282Z,2.70
2023-01-19T22:26:29.030Z,3.10
2023-01-19T22:28:59.470Z,3.20
2023-01-19T22:31:29.203Z,2.70
2023-01-19T22:33:58.485Z,2.60
2023-01-19T22:41:46.226Z,2.30
2023-01-19T22:44:17.571Z,2.50
2023-01-19T22:46:45.676Z,2.70
2023-01-19T22:49:16.202Z,2.40
2023-01-19T22:51:44.794Z,2.70
2023-01-19T22:54:12.963Z,3.20
2023-01-19T22:56:41.962Z,3.00
2023-01-19T22:59:10.030Z,2.90
2023-01-19T23:01:40.962Z,3.30
2023-01-19T23:04:13.201Z,3.30
2023-01-19T23:06:42.124Z,3.70
2023-01-19T23:09:12.869Z,4.30
2023-01-19T23:11:43.819Z,4.40
2023-01-19T23:14:16.993Z,4.20
2023-01-19T23:16:47.107Z,4.40
2023-01-19T23:19:17.203Z,4.00
2023-01-19T23:21:45.922Z,4.40
2023-01-19T23:24:13.985Z,4.20
2023-01-19T23:26:42.072Z,3.80
2023-01-19T23:29:13.612Z,3.90
2023-01-19T23:31:47.342Z,4.30
2023-01-19T23:34:16.131Z,4.30
2023-01-19T23:36:44.705Z,5.00
2023-01-19T23:39:22.672Z,5.20
2023-01-19T23:41:50.661Z,5.30
2023-01-19T23:44:18.789Z,5.90
2023-01-19T23:46:47.334Z,6.20
2023-01-19T23:49:15.245Z,6.40
2023-01-19T23:51:43.163Z,5.70
2023-01-19T23:54:12.395Z,6.20
2023-01-19T23:59:13.006Z,7.10
